Time;durP1;ratioP1;P1;durP2;ratioP2;P2;SDS_P1;SDS_P2;PMS_P1;PMS_P2;Temp;Humidity;BMP_temperature;BMP_pressure;BME280_temperature;BME280_humidity;BME280_pressure;Samples;Min_cycle;Max_cycle;Signal;HPM_P1;HPM_P2
2021/01/31 00:01:17;;;;;;;2.13;1.98;;;2.40;99.90;;;;;;4996202;28;20164;-74
2021/01/31 00:03:43;;;;;;;2.30;2.10;;;2.30;99.90;;;;;;4988629;28;20480;-73
2021/01/31 00:06:08;;;;;;;2.40;2.20;;;2.30;99.90;;;;;;4986235;28;20095;-73
2021/01/31 00:08:34;;;;;;;2.60;2.40;;;2.20;99.90;;;;;;4989977;28;20575;-73
2021/01/31 00:11:00;;;;;;;2.50;2.30;;;2.20;99.90;;;;;;4983779;28;20093;-72
2021/01/31 00:13:27;;;;;;;2.50;2.30;;;2.20;99.90;;;;;;4972707;28;20594;-72
2021/01/31 00:15:53;;;;;;;2.83;2.60;;;2.20;99.90;;;;;;4976100;28;20095;-74
2021/01/31 00:18:27;;;;;;;2.97;2.42;;;2.30;99.90;;;;;;4982907;28;20075;-74
2021/01/31 00:20:54;;;;;;;2.58;2.38;;;2.20;99.90;;;;;;4970987;28;20146;-74
2021/01/31 00:23:20;;;;;;;3.25;2.63;;;2.20;99.90;;;;;;4976726;28;20086;-74
2021/01/31 00:25:46;;;;;;;3.00;2.30;;;2.10;99.90;;;;;;4984043;28;20098;-74
2021/01/31 00:28:14;;;;;;;2.88;2.53;;;2.00;99.90;;;;;;4981843;28;20091;-74
2021/01/31 00:30:45;;;;;;;3.53;3.20;;;1.90;99.90;;;;;;4978484;28;20071;-74
2021/01/31 00:33:14;;;;;;;3.80;3.20;;;1.80;99.90;;;;;;4989925;28;20085;-74
2021/01/31 00:35:40;;;;;;;3.65;3.25;;;1.80;99.90;;;;;;4972878;28;20099;-74
2021/01/31 00:38:08;;;;;;;3.22;2.92;;;1.80;99.90;;;;;;4973981;28;20080;-74
2021/01/31 00:40:34;;;;;;;3.75;2.95;;;1.90;99.90;;;;;;4977982;28;20108;-74
2021/01/31 00:43:00;;;;;;;3.90;3.38;;;1.90;99.90;;;;;;4976618;28;20170;-74
2021/01/31 00:45:27;;;;;;;4.63;3.80;;;2.00;99.90;;;;;;4973549;28;20201;-74
2021/01/31 00:47:54;;;;;;;4.47;3.50;;;1.70;99.90;;;;;;4971386;28;20083;-73
2021/01/31 00:50:23;;;;;;;4.28;3.40;;;1.70;99.90;;;;;;4975312;28;20079;-74
2021/01/31 00:52:48;;;;;;;4.93;3.78;;;1.80;99.90;;;;;;4972446;28;20556;-74
2021/01/31 00:55:14;;;;;;;4.85;3.83;;;1.70;99.90;;;;;;4971919;28;20135;-74
2021/01/31 00:57:40;;;;;;;6.53;4.00;;;1.80;99.90;;;;;;4985858;28;20078;-74
2021/01/31 01:00:15;;;;;;;4.18;3.75;;;1.80;99.90;;;;;;4987623;28;20190;-74
2021/01/31 01:02:40;;;;;;;4.07;3.67;;;1.60;99.90;;;;;;4984313;28;20552;-74
2021/01/31 01:05:07;;;;;;;4.60;4.20;;;1.70;99.90;;;;;;4971724;28;20115;-74
2021/01/31 01:07:32;;;;;;;5.13;4.40;;;1.70;99.90;;;;;;4972074;28;20087;-74
2021/01/31 01:09:58;;;;;;;4.50;3.60;;;1.60;99.90;;;;;;4982660;28;20555;-74
2021/01/31 01:12:23;;;;;;;4.68;4.15;;;1.70;99.90;;;;;;4987670;28;20082;-74
2021/01/31 01:14:49;;;;;;;5.57;4.10;;;1.90;99.90;;;;;;4973678;28;20095;-74
2021/01/31 01:17:14;;;;;;;4.18;3.75;;;2.00;99.90;;;;;;4982036;28;20098;-74
2021/01/31 01:19:40;;;;;;;5.28;3.83;;;1.50;99.90;;;;;;4973400;28;20150;-74
2021/01/31 01:22:05;;;;;;;6.43;4.72;;;1.50;99.90;;;;;;4981900;28;20090;-73
2021/01/31 01:24:31;;;;;;;4.22;3.63;;;1.30;99.90;;;;;;4985150;28;20177;-73
2021/01/31 01:26:57;;;;;;;4.47;3.67;;;1.40;99.90;;;;;;4983843;28;20082;-75
2021/01/31 01:29:23;;;;;;;4.28;3.60;;;1.60;99.90;;;;;;4985061;28;20091;-72
2021/01/31 01:31:48;;;;;;;4.72;3.97;;;1.60;99.90;;;;;;4969409;28;20703;-74
2021/01/31 01:34:14;;;;;;;4.10;3.55;;;1.40;99.90;;;;;;4968444;28;20166;-72
2021/01/31 01:36:40;;;;;;;6.45;4.35;;;1.30;99.90;;;;;;4970511;28;20078;-75
2021/01/31 01:39:06;;;;;;;4.47;3.67;;;1.40;99.90;;;;;;4970888;28;20083;-75
2021/01/31 01:41:37;;;;;;;4.45;3.78;;;1.40;99.90;;;;;;4970261;28;20087;-73
2021/01/31 01:44:03;;;;;;;5.15;3.97;;;1.30;99.90;;;;;;4970476;28;20158;-71
2021/01/31 01:46:41;;;;;;;4.78;3.92;;;1.40;99.90;;;;;;4977671;28;20536;-74
2021/01/31 01:49:17;;;;;;;4.63;3.83;;;1.50;99.90;;;;;;4970019;28;20164;-73
2021/01/31 01:51:56;;;;;;;4.38;3.75;;;1.60;99.90;;;;;;4971493;28;20079;-71
2021/01/31 01:54:31;;;;;;;5.88;4.63;;;1.30;99.90;;;;;;4975941;28;20122;-74
2021/01/31 01:57:01;;;;;;;4.90;3.97;;;1.20;99.90;;;;;;4982053;28;20074;-74
2021/01/31 01:59:29;;;;;;;5.22;4.00;;;1.30;99.90;;;;;;4981945;28;20145;-74
2021/01/31 02:02:17;;;;;;;5.15;3.80;;;1.10;99.90;;;;;;4990001;28;20071;-73
2021/01/31 02:04:44;;;;;;;5.70;4.40;;;1.00;99.90;;;;;;4988028;28;20161;-73
2021/01/31 02:07:10;;;;;;;7.28;4.82;;;1.00;99.90;;;;;;4989233;28;20079;-74
2021/01/31 02:09:36;;;;;;;4.95;4.45;;;1.10;99.90;;;;;;4988936;28;20177;-74
2021/01/31 02:12:03;;;;;;;5.30;4.03;;;1.20;99.90;;;;;;4971146;28;20079;-74
2021/01/31 02:14:31;;;;;;;4.45;3.92;;;1.20;99.90;;;;;;4981571;28;20166;-74
2021/01/31 02:17:06;;;;;;;4.15;3.67;;;1.20;99.90;;;;;;4970224;28;20157;-74
2021/01/31 02:20:09;;;;;;;5.10;3.85;;;1.20;99.90;;;;;;4970279;28;20074;-74
2021/01/31 02:23:23;;;;;;;5.97;4.78;;;1.20;99.90;;;;;;4980471;28;20094;-74
2021/01/31 02:25:52;;;;;;;6.03;3.65;;;1.00;99.90;;;;;;4973204;28;20130;-73
2021/01/31 02:28:23;;;;;;;4.65;4.13;;;1.00;99.90;;;;;;4986840;28;20608;-73
2021/01/31 02:31:08;;;;;;;5.13;3.90;;;1.10;99.90;;;;;;4982966;28;20113;-74
2021/01/31 02:34:00;;;;;;;4.57;3.88;;;1.00;99.90;;;;;;4978700;28;20075;-73
2021/01/31 02:36:44;;;;;;;4.30;3.42;;;1.10;99.90;;;;;;4969365;28;20103;-72
2021/01/31 02:39:57;;;;;;;4.18;3.35;;;1.10;99.90;;;;;;4967893;28;20075;-73
2021/01/31 02:42:48;;;;;;;4.07;3.38;;;1.20;99.90;;;;;;4931125;29;20119;-72
2021/01/31 02:45:25;;;;;;;5.60;4.10;;;1.40;99.90;;;;;;4946994;28;20103;-72
2021/01/31 02:47:59;;;;;;;3.95;2.95;;;1.10;99.90;;;;;;4963524;28;20551;-72
2021/01/31 02:50:36;;;;;;;5.25;3.78;;;1.00;99.90;;;;;;4969660;28;20083;-73
2021/01/31 02:53:10;;;;;;;4.55;3.70;;;1.00;99.90;;;;;;4970527;28;20165;-75
2021/01/31 02:55:45;;;;;;;5.18;3.92;;;1.10;99.90;;;;;;4983137;28;20083;-73
2021/01/31 02:58:16;;;;;;;4.30;3.55;;;1.00;99.90;;;;;;4973195;28;20566;-72
2021/01/31 03:00:58;;;;;;;3.72;3.38;;;1.00;99.90;;;;;;4972288;28;20570;-73
2021/01/31 03:03:45;;;;;;;5.07;4.18;;;1.00;99.90;;;;;;4986304;28;20118;-74
2021/01/31 03:06:15;;;;;;;4.30;3.85;;;1.00;99.90;;;;;;4978295;28;20075;-72
2021/01/31 03:08:47;;;;;;;5.18;4.45;;;1.20;99.90;;;;;;4978456;28;20173;-72
2021/01/31 03:11:16;;;;;;;6.88;4.40;;;1.20;99.90;;;;;;4974278;28;20074;-72
2021/01/31 03:14:05;;;;;;;6.10;4.57;;;1.00;99.90;;;;;;4970115;28;20076;-72
2021/01/31 03:16:50;;;;;;;7.95;4.43;;;1.10;99.90;;;;;;4985662;28;20125;-75
2021/01/31 03:19:15;;;;;;;6.80;4.78;;;1.10;99.90;;;;;;4969064;28;20079;-73
2021/01/31 03:21:46;;;;;;;7.63;4.47;;;1.20;99.90;;;;;;4980175;28;20110;-73
2021/01/31 03:24:36;;;;;;;6.28;4.13;;;1.00;99.90;;;;;;4987988;28;20110;-73
2021/01/31 03:27:23;;;;;;;7.25;4.80;;;1.00;99.90;;;;;;4977485;28;20131;-72
2021/01/31 03:29:49;;;;;;;5.57;4.40;;;1.00;99.90;;;;;;4969119;28;20117;-74
2021/01/31 03:32:29;;;;;;;6.00;4.68;;;0.80;99.90;;;;;;4969213;28;20085;-73
2021/01/31 03:35:10;;;;;;;7.90;4.72;;;0.80;99.90;;;;;;4978728;28;20124;-73
2021/01/31 03:37:50;;;;;;;7.28;4.82;;;0.80;99.90;;;;;;4972582;28;20660;-74
2021/01/31 03:40:18;;;;;;;6.95;5.15;;;0.60;99.90;;;;;;4972096;28;20102;-72
2021/01/31 03:42:44;;;;;;;7.50;4.93;;;0.60;99.90;;;;;;4984347;28;20606;-74
2021/01/31 03:45:12;;;;;;;9.18;5.10;;;0.60;99.90;;;;;;4971820;28;20157;-72
2021/01/31 03:47:52;;;;;;;5.93;4.40;;;0.60;99.90;;;;;;4985081;28;20538;-73
2021/01/31 03:50:18;;;;;;;8.23;5.22;;;0.60;99.90;;;;;;4980674;28;20103;-72
2021/01/31 03:52:44;;;;;;;7.13;4.85;;;0.50;99.90;;;;;;4973741;28;20117;-74
2021/01/31 03:55:11;;;;;;;6.72;5.25;;;0.60;99.90;;;;;;4968266;28;20091;-72
2021/01/31 03:57:43;;;;;;;6.88;4.80;;;0.60;99.90;;;;;;4974045;28;20071;-72
2021/01/31 04:00:20;;;;;;;6.70;5.18;;;0.50;99.90;;;;;;4976408;28;20173;-73
2021/01/31 04:03:02;;;;;;;10.40;5.28;;;0.50;99.90;;;;;;4986739;28;20111;-73
2021/01/31 04:05:32;;;;;;;6.70;5.22;;;0.50;99.90;;;;;;4988967;28;20109;-72
2021/01/31 04:08:03;;;;;;;8.32;5.05;;;0.50;99.90;;;;;;4990614;28;20082;-74
2021/01/31 04:10:29;;;;;;;7.90;4.70;;;0.60;99.90;;;;;;4991452;28;20471;-74
2021/01/31 04:12:58;;;;;;;11.63;5.85;;;0.60;99.90;;;;;;4982252;28;20075;-73
2021/01/31 04:15:40;;;;;;;7.07;4.93;;;0.70;99.90;;;;;;4972070;28;20079;-73
2021/01/31 04:18:08;;;;;;;7.80;4.82;;;0.80;99.90;;;;;;4972581;28;20110;-73
2021/01/31 04:20:34;;;;;;;6.45;4.65;;;0.80;99.90;;;;;;4980071;28;20075;-73
2021/01/31 04:23:00;;;;;;;8.20;5.22;;;0.60;99.90;;;;;;4987907;28;20086;-73
2021/01/31 04:25:27;;;;;;;7.55;4.82;;;0.50;99.90;;;;;;4985203;28;20157;-74
2021/01/31 04:27:53;;;;;;;6.57;4.97;;;0.60;99.90;;;;;;4986157;28;20101;-72
2021/01/31 04:30:19;;;;;;;8.20;5.18;;;0.40;99.90;;;;;;4976021;28;20099;-72
2021/01/31 04:32:44;;;;;;;8.63;5.63;;;0.40;99.90;;;;;;4980115;28;20506;-73
2021/01/31 04:35:11;;;;;;;8.25;5.18;;;0.30;99.90;;;;;;4974842;28;20146;-73
2021/01/31 04:37:37;;;;;;;8.00;5.25;;;0.30;99.90;;;;;;4971611;28;20126;-73
2021/01/31 04:40:10;;;;;;;6.72;4.93;;;0.50;99.90;;;;;;4972114;28;20475;-72
2021/01/31 04:42:35;;;;;;;8.15;4.68;;;0.30;99.90;;;;;;4982522;28;20178;-73
2021/01/31 04:45:03;;;;;;;7.70;5.25;;;0.40;99.90;;;;;;4986754;28;20189;-72
2021/01/31 04:47:37;;;;;;;7.57;4.85;;;0.40;99.90;;;;;;4981470;28;20071;-72
2021/01/31 04:50:18;;;;;;;7.82;5.07;;;0.50;99.90;;;;;;4973963;28;20147;-73
2021/01/31 04:52:49;;;;;;;9.20;5.63;;;0.30;99.90;;;;;;4989368;28;20165;-72
2021/01/31 04:55:27;;;;;;;8.05;5.13;;;0.40;99.90;;;;;;4989887;28;20583;-73
2021/01/31 04:58:01;;;;;;;7.32;5.05;;;0.20;99.90;;;;;;4986887;28;20086;-73
2021/01/31 05:00:28;;;;;;;;;;;0.20;99.90;;;;;;4972867;28;20090;-74
2021/01/31 05:02:59;;;;;;;7.10;4.97;;;0.20;99.90;;;;;;4986114;28;20679;-73
2021/01/31 05:05:30;;;;;;;8.30;5.82;;;0.00;99.90;;;;;;4982913;28;20245;-73
2021/01/31 05:07:58;;;;;;;8.60;4.90;;;0.10;99.90;;;;;;4973289;28;20087;-72
2021/01/31 05:10:24;;;;;;;7.88;5.35;;;0.10;99.90;;;;;;4973539;28;20075;-72
2021/01/31 05:13:08;;;;;;;6.43;4.50;;;0.00;99.90;;;;;;4973028;28;20101;-73
2021/01/31 05:15:41;;;;;;;7.32;5.32;;;0.10;99.90;;;;;;4970864;28;20083;-73
2021/01/31 05:18:09;;;;;;;7.65;4.10;;;0.00;99.90;;;;;;4988249;28;20079;-72
2021/01/31 05:20:36;;;;;;;9.63;5.78;;;0.00;99.90;;;;;;4978637;28;20068;-73
2021/01/31 05:23:03;;;;;;;7.38;4.80;;;0.10;99.90;;;;;;4986874;28;20151;-72
2021/01/31 05:25:32;;;;;;;6.88;4.75;;;0.00;99.90;;;;;;4988801;28;20586;-72
2021/01/31 05:27:59;;;;;;;6.82;4.20;;;0.00;99.90;;;;;;4978480;28;20078;-73
2021/01/31 05:30:27;;;;;;;7.10;5.13;;;0.20;99.90;;;;;;4980749;28;20083;-72
2021/01/31 05:33:16;;;;;;;7.65;4.55;;;0.10;99.90;;;;;;4990504;28;20756;-73
2021/01/31 05:36:14;;;;;;;7.72;4.97;;;0.00;99.90;;;;;;4969306;28;20109;-73
2021/01/31 05:38:43;;;;;;;8.13;5.63;;;0.10;99.90;;;;;;4971866;28;20075;-75
2021/01/31 05:41:35;;;;;;;10.25;5.82;;;0.10;99.90;;;;;;4973430;28;20102;-72
2021/01/31 05:44:28;;;;;;;7.43;5.25;;;-0.10;99.90;;;;;;4975670;28;20454;-73
2021/01/31 05:47:01;;;;;;;9.35;6.13;;;0.10;99.90;;;;;;4987626;28;20129;-74
2021/01/31 05:49:44;;;;;;;9.32;6.25;;;0.20;99.90;;;;;;4970875;28;20559;-72
2021/01/31 05:52:22;;;;;;;8.63;5.57;;;0.10;99.90;;;;;;4976620;28;20078;-73
2021/01/31 05:54:50;;;;;;;10.02;5.53;;;0.00;99.90;;;;;;4983811;28;20101;-72
2021/01/31 05:57:26;;;;;;;10.60;6.38;;;0.00;99.90;;;;;;4991789;28;20074;-72
2021/01/31 05:59:52;;;;;;;9.25;5.78;;;0.10;99.90;;;;;;4990484;28;20114;-73
2021/01/31 06:02:30;;;;;;;9.02;5.75;;;-0.10;99.90;;;;;;4976950;28;20074;-72
2021/01/31 06:05:19;;;;;;;9.45;6.18;;;0.00;99.90;;;;;;4989308;28;20110;-72
2021/01/31 06:07:46;;;;;;;11.52;7.13;;;0.20;99.90;;;;;;4982375;28;20082;-74
2021/01/31 06:10:17;;;;;;;8.57;5.78;;;0.30;99.90;;;;;;4982354;28;20150;-73
2021/01/31 06:12:45;;;;;;;10.25;6.78;;;0.30;99.90;;;;;;4971824;28;20115;-75
2021/01/31 06:15:35;;;;;;;9.98;5.97;;;0.40;99.90;;;;;;4976262;28;20121;-74
2021/01/31 06:18:05;;;;;;;10.25;6.75;;;0.10;99.90;;;;;;4972901;28;20079;-72
2021/01/31 06:20:36;;;;;;;11.77;6.57;;;-0.10;99.90;;;;;;4974515;28;20083;-72
2021/01/31 06:23:05;;;;;;;8.85;5.60;;;-0.10;99.90;;;;;;4975570;28;20100;-72
2021/01/31 06:25:39;;;;;;;11.35;7.00;;;0.00;99.90;;;;;;4969018;28;20087;-73
2021/01/31 06:28:11;;;;;;;9.82;6.15;;;-0.10;99.90;;;;;;4979972;28;20114;-73
2021/01/31 06:30:52;;;;;;;11.32;7.80;;;0.10;99.90;;;;;;4972401;28;20138;-72
2021/01/31 06:33:18;;;;;;;14.13;7.10;;;0.00;99.90;;;;;;4975223;28;20074;-74
2021/01/31 06:35:44;;;;;;;13.65;7.03;;;0.10;99.90;;;;;;4980187;28;20091;-72
2021/01/31 06:38:23;;;;;;;11.45;6.25;;;0.10;99.90;;;;;;4976571;28;20081;-74
2021/01/31 06:41:14;;;;;;;9.50;6.38;;;0.00;99.90;;;;;;4984136;28;20095;-73
2021/01/31 06:43:52;;;;;;;11.93;6.90;;;0.00;99.90;;;;;;4969689;28;20551;-72
2021/01/31 06:47:04;;;;;;;11.32;6.97;;;-0.10;99.90;;;;;;4975515;28;20070;-73
2021/01/31 06:49:58;;;;;;;11.60;7.20;;;0.10;99.90;;;;;;4970214;28;20098;-72
2021/01/31 06:52:48;;;;;;;10.40;6.47;;;0.10;99.90;;;;;;4970397;28;20079;-74
2021/01/31 06:55:13;;;;;;;11.63;7.57;;;0.00;99.90;;;;;;4969228;28;20103;-74
2021/01/31 06:57:53;;;;;;;9.57;6.72;;;0.10;99.90;;;;;;4980993;28;20082;-72
2021/01/31 07:00:39;;;;;;;10.77;6.68;;;0.20;99.90;;;;;;4971244;28;20110;-72
2021/01/31 07:03:21;;;;;;;9.48;6.78;;;0.00;99.90;;;;;;4979459;28;20531;-74
2021/01/31 07:06:32;;;;;;;14.63;7.13;;;0.10;99.90;;;;;;4987321;28;20125;-73
2021/01/31 07:09:52;;;;;;;11.95;6.45;;;0.20;99.90;;;;;;4988123;28;20181;-75
2021/01/31 07:12:38;;;;;;;10.82;6.95;;;0.00;99.90;;;;;;4966267;28;20087;-72
2021/01/31 07:15:15;;;;;;;14.13;8.43;;;-0.10;99.90;;;;;;4974552;28;20447;-72
2021/01/31 07:17:56;;;;;;;12.98;7.85;;;0.10;99.90;;;;;;4972516;28;20162;-72
2021/01/31 07:20:36;;;;;;;10.32;6.28;;;0.10;99.90;;;;;;4979608;28;20083;-72
2021/01/31 07:23:12;;;;;;;12.45;7.07;;;0.20;99.90;;;;;;4987073;28;20083;-73
2021/01/31 07:25:47;;;;;;;12.70;7.32;;;0.10;99.90;;;;;;4990946;28;20168;-73
2021/01/31 07:28:18;;;;;;;14.35;7.63;;;0.20;99.90;;;;;;4987284;28;20086;-71
2021/01/31 07:31:18;;;;;;;12.02;7.60;;;0.20;99.90;;;;;;4968671;28;20079;-73
2021/01/31 07:34:03;;;;;;;14.48;7.85;;;0.20;99.90;;;;;;4966550;28;20091;-73
2021/01/31 07:36:37;;;;;;;14.07;8.07;;;0.00;99.90;;;;;;4984407;28;20082;-73
2021/01/31 07:39:06;;;;;;;12.88;7.45;;;-0.10;99.90;;;;;;4969143;28;20097;-72
2021/01/31 07:41:34;;;;;;;12.32;8.25;;;0.00;99.90;;;;;;4971923;28;20079;-73
2021/01/31 07:44:10;;;;;;;13.93;8.20;;;0.00;99.90;;;;;;4965974;28;20607;-74
2021/01/31 07:46:36;;;;;;;11.70;7.55;;;0.20;99.90;;;;;;4967939;28;20107;-74
2021/01/31 07:49:05;;;;;;;13.05;7.63;;;0.10;99.90;;;;;;4966204;28;20455;-75
2021/01/31 07:51:36;;;;;;;13.40;7.30;;;0.10;99.90;;;;;;4978023;28;20093;-73
2021/01/31 07:54:23;;;;;;;10.55;7.72;;;0.10;99.90;;;;;;4984989;28;20165;-74
2021/01/31 07:56:50;;;;;;;14.32;9.13;;;-0.10;99.90;;;;;;4970970;28;20528;-74
2021/01/31 07:59:19;;;;;;;13.20;8.32;;;-0.10;99.90;;;;;;4980245;28;20570;-72
2021/01/31 08:01:47;;;;;;;13.63;8.30;;;0.10;99.90;;;;;;4987386;28;20098;-72
2021/01/31 08:04:15;;;;;;;14.75;8.77;;;0.20;99.90;;;;;;4983260;28;20164;-74
2021/01/31 08:06:49;;;;;;;12.93;7.68;;;0.20;99.90;;;;;;4984410;28;20078;-72
2021/01/31 08:09:46;;;;;;;13.55;7.63;;;0.20;99.90;;;;;;4983376;28;20091;-74
2021/01/31 08:12:14;;;;;;;11.40;7.10;;;0.20;99.90;;;;;;4982903;28;20219;-73
2021/01/31 08:15:01;;;;;;;12.20;8.00;;;0.30;99.90;;;;;;4984151;28;20129;-73
2021/01/31 08:17:46;;;;;;;14.10;7.80;;;0.30;99.90;;;;;;4983088;28;20074;-73
2021/01/31 08:20:29;;;;;;;13.25;7.75;;;0.10;99.90;;;;;;4978424;28;20079;-73
2021/01/31 08:22:59;;;;;;;13.13;7.50;;;0.10;99.90;;;;;;4985717;28;20082;-74
2021/01/31 08:25:30;;;;;;;14.82;7.90;;;0.10;99.90;;;;;;4981807;28;20091;-74
2021/01/31 08:28:02;;;;;;;13.05;8.10;;;0.20;99.90;;;;;;4982370;28;20189;-73
2021/01/31 08:30:40;;;;;;;13.05;8.80;;;0.20;99.90;;;;;;4983342;28;20220;-73
2021/01/31 08:33:21;;;;;;;13.68;8.88;;;0.30;99.90;;;;;;4986672;28;20165;-72
2021/01/31 08:35:47;;;;;;;13.63;7.80;;;0.20;99.90;;;;;;4987032;28;20479;-74
2021/01/31 08:38:24;;;;;;;15.13;8.90;;;0.20;99.90;;;;;;4967779;28;20079;-74
2021/01/31 08:41:02;;;;;;;13.75;8.00;;;0.30;99.90;;;;;;4971868;28;20125;-73
2021/01/31 08:43:32;;;;;;;13.65;8.23;;;0.30;99.90;;;;;;4968276;28;21427;-75
2021/01/31 08:46:14;;;;;;;17.35;10.13;;;0.20;99.90;;;;;;4977047;28;20103;-74
2021/01/31 08:48:54;;;;;;;14.07;8.70;;;0.30;99.90;;;;;;4986826;28;20197;-74
2021/01/31 08:51:32;;;;;;;15.02;9.20;;;0.30;99.90;;;;;;4973085;28;20102;-73
2021/01/31 08:54:17;;;;;;;13.23;8.82;;;0.30;99.90;;;;;;4975665;28;20117;-73
2021/01/31 08:56:58;;;;;;;16.40;8.95;;;0.30;99.90;;;;;;4985514;28;20071;-74
2021/01/31 08:59:30;;;;;;;16.20;8.75;;;0.30;99.90;;;;;;4986221;28;20097;-73
2021/01/31 09:02:01;;;;;;;15.60;8.93;;;0.50;99.90;;;;;;4973742;28;20075;-72
2021/01/31 09:04:27;;;;;;;15.27;9.02;;;0.50;99.90;;;;;;4984022;28;20581;-75
2021/01/31 09:06:58;;;;;;;16.88;9.35;;;0.50;99.90;;;;;;4977920;28;20079;-75
2021/01/31 09:09:27;;;;;;;15.43;9.25;;;0.60;99.90;;;;;;4971334;28;20099;-74
2021/01/31 09:11:56;;;;;;;15.73;9.07;;;0.40;99.90;;;;;;4970566;28;20075;-74
2021/01/31 09:14:30;;;;;;;18.42;9.93;;;0.20;99.90;;;;;;4959006;28;20140;-74
2021/01/31 09:17:23;;;;;;;16.70;9.38;;;0.10;99.90;;;;;;4970015;28;20579;-74
2021/01/31 09:19:49;;;;;;;14.93;8.98;;;0.20;99.90;;;;;;4985099;28;20651;-75
2021/01/31 09:22:23;;;;;;;15.63;9.15;;;0.40;99.90;;;;;;4977191;28;20641;-75
2021/01/31 09:25:01;;;;;;;13.77;8.10;;;0.50;99.90;;;;;;4983784;28;20106;-75
2021/01/31 09:27:27;;;;;;;15.43;9.25;;;0.30;99.90;;;;;;4995781;28;20082;-78
2021/01/31 09:30:04;;;;;;;16.33;9.85;;;0.30;99.90;;;;;;4976795;28;20091;-75
2021/01/31 09:32:39;;;;;;;13.90;8.10;;;0.20;99.90;;;;;;4971220;28;20086;-76
2021/01/31 09:35:11;;;;;;;12.25;8.60;;;0.20;99.90;;;;;;4996240;28;20094;-74
2021/01/31 09:37:37;;;;;;;13.48;8.00;;;0.10;99.90;;;;;;4980851;28;20267;-74
2021/01/31 09:40:09;;;;;;;17.00;10.05;;;0.20;99.90;;;;;;4974787;28;20523;-73
2021/01/31 09:42:38;;;;;;;16.58;10.18;;;0.30;99.90;;;;;;4996735;28;20095;-73
2021/01/31 09:45:22;;;;;;;16.58;9.65;;;0.10;99.90;;;;;;4989526;28;20087;-75
2021/01/31 09:47:48;;;;;;;15.88;9.27;;;0.20;99.90;;;;;;4974859;28;20090;-74
2021/01/31 09:50:15;;;;;;;15.60;9.40;;;0.20;99.90;;;;;;4986308;28;20102;-74
2021/01/31 09:52:42;;;;;;;14.57;8.90;;;0.20;99.90;;;;;;4988392;28;20098;-73
2021/01/31 09:55:24;;;;;;;17.65;9.63;;;0.30;99.90;;;;;;4980072;28;20088;-74
2021/01/31 09:57:50;;;;;;;16.33;10.25;;;0.30;99.90;;;;;;4982783;28;20518;-74
2021/01/31 10:00:23;;;;;;;17.58;9.57;;;0.30;99.90;;;;;;4985337;28;20098;-73
2021/01/31 10:02:49;;;;;;;19.42;9.80;;;0.30;99.90;;;;;;4977891;28;20099;-72
2021/01/31 10:05:17;;;;;;;17.10;9.95;;;0.10;99.90;;;;;;4975072;28;20142;-74
2021/01/31 10:07:44;;;;;;;16.08;10.07;;;0.30;99.90;;;;;;4980773;28;20068;-74
2021/01/31 10:10:39;;;;;;;15.90;9.75;;;0.40;99.90;;;;;;4992110;28;20099;-75
2021/01/31 10:13:27;;;;;;;15.05;9.23;;;0.20;99.90;;;;;;4970639;28;20087;-73
2021/01/31 10:15:58;;;;;;;17.40;8.70;;;0.10;99.90;;;;;;4976506;28;20114;-74
2021/01/31 10:18:35;;;;;;;17.80;11.50;;;0.20;99.90;;;;;;4990688;28;20606;-74
2021/01/31 10:21:14;;;;;;;16.15;9.70;;;0.40;99.90;;;;;;4975015;28;20165;-73
2021/01/31 10:23:40;;;;;;;14.98;8.85;;;0.50;99.90;;;;;;4970544;28;20078;-74
2021/01/31 10:26:11;;;;;;;15.82;9.10;;;0.60;99.90;;;;;;4988114;28;20105;-73
2021/01/31 10:28:43;;;;;;;16.10;9.55;;;0.40;99.90;;;;;;4993538;28;20109;-73
2021/01/31 10:31:30;;;;;;;16.58;9.40;;;0.40;99.90;;;;;;4979583;28;20456;-74
2021/01/31 10:33:57;;;;;;;16.73;9.20;;;0.30;99.90;;;;;;4970707;28;20083;-73
2021/01/31 10:36:30;;;;;;;17.75;10.13;;;0.30;99.90;;;;;;4970275;28;20571;-73
2021/01/31 10:39:09;;;;;;;15.15;9.05;;;0.20;99.90;;;;;;4986511;28;20083;-75
2021/01/31 10:41:36;;;;;;;18.10;10.00;;;0.40;99.90;;;;;;4984189;28;20574;-75
2021/01/31 10:44:05;;;;;;;15.57;8.90;;;0.50;99.90;;;;;;4968147;28;20079;-76
2021/01/31 10:46:33;;;;;;;16.30;9.20;;;0.50;99.90;;;;;;4970839;28;20137;-75
2021/01/31 10:48:58;;;;;;;18.23;8.82;;;0.40;99.90;;;;;;4982307;28;20099;-75
2021/01/31 10:51:27;;;;;;;17.05;10.32;;;0.50;99.90;;;;;;4977432;28;20093;-76
2021/01/31 10:53:53;;;;;;;17.40;9.32;;;0.60;99.90;;;;;;4977696;28;20580;-74
2021/01/31 10:56:18;;;;;;;14.40;9.48;;;0.60;99.90;;;;;;4986672;28;20090;-77
2021/01/31 10:58:44;;;;;;;15.77;8.57;;;0.50;99.90;;;;;;4993304;28;20171;-76
2021/01/31 11:01:09;;;;;;;15.60;8.27;;;0.60;99.90;;;;;;4973009;28;20202;-74
2021/01/31 11:03:35;;;;;;;16.33;9.73;;;0.50;99.90;;;;;;4989627;28;20125;-73
2021/01/31 11:06:01;;;;;;;13.90;9.07;;;0.50;99.90;;;;;;4981828;28;20197;-74
2021/01/31 11:08:26;;;;;;;13.05;8.27;;;0.50;99.90;;;;;;4986019;28;20086;-72
2021/01/31 11:10:53;;;;;;;14.43;8.40;;;0.50;99.90;;;;;;4974950;28;20110;-74
2021/01/31 11:13:19;;;;;;;17.02;9.80;;;0.50;99.90;;;;;;4970917;28;20087;-74
2021/01/31 11:15:45;;;;;;;12.48;7.93;;;0.50;99.90;;;;;;4981394;28;20413;-75
2021/01/31 11:18:10;;;;;;;14.52;8.27;;;0.50;99.90;;;;;;4997072;28;20637;-74
2021/01/31 11:20:36;;;;;;;15.57;8.73;;;0.60;99.90;;;;;;4990039;28;20169;-74
2021/01/31 11:23:02;;;;;;;14.93;8.30;;;0.60;99.90;;;;;;4995777;28;20090;-74
2021/01/31 11:25:27;;;;;;;13.38;8.60;;;0.70;99.90;;;;;;4979949;28;20110;-75
2021/01/31 11:27:53;;;;;;;18.27;8.65;;;0.50;99.90;;;;;;4977859;28;20090;-75
2021/01/31 11:30:18;;;;;;;13.27;8.38;;;0.50;99.90;;;;;;4973570;28;20168;-75
2021/01/31 11:32:44;;;;;;;13.55;7.68;;;0.50;99.90;;;;;;4974767;28;20221;-74
2021/01/31 11:35:10;;;;;;;12.85;7.82;;;0.50;99.90;;;;;;4967618;28;20127;-74
2021/01/31 11:37:36;;;;;;;12.65;8.23;;;0.50;99.90;;;;;;4974106;28;20166;-74
2021/01/31 11:40:04;;;;;;;14.18;8.32;;;0.50;99.90;;;;;;4968161;28;20730;-73
2021/01/31 11:42:30;;;;;;;12.20;8.35;;;0.60;99.90;;;;;;4985094;28;20117;-74
2021/01/31 11:44:55;;;;;;;18.30;10.68;;;0.60;99.90;;;;;;4978899;28;20126;-76
2021/01/31 11:47:21;;;;;;;17.45;10.05;;;0.70;99.90;;;;;;4993129;28;20173;-75
2021/01/31 11:49:47;;;;;;;17.00;8.38;;;0.50;99.90;;;;;;4964560;28;20202;-74
2021/01/31 11:52:13;;;;;;;12.15;7.43;;;0.40;99.90;;;;;;4974478;28;20087;-75
2021/01/31 11:54:39;;;;;;;15.15;9.60;;;0.50;99.90;;;;;;4972952;28;20103;-74
2021/01/31 11:57:05;;;;;;;16.00;9.00;;;0.50;99.90;;;;;;4981593;28;20083;-75
2021/01/31 11:59:30;;;;;;;14.57;8.05;;;0.60;99.90;;;;;;4968804;28;20121;-75
2021/01/31 12:01:56;;;;;;;13.48;8.32;;;0.60;99.90;;;;;;4976982;28;20657;-73
2021/01/31 12:04:21;;;;;;;19.58;10.77;;;0.50;99.90;;;;;;4985756;28;20111;-74
2021/01/31 12:06:47;;;;;;;14.43;8.52;;;0.70;99.90;;;;;;4985216;28;20170;-74
2021/01/31 12:09:12;;;;;;;17.75;8.27;;;0.70;99.90;;;;;;4984454;28;20094;-74
2021/01/31 12:11:38;;;;;;;13.45;7.68;;;0.80;99.90;;;;;;4990261;28;20103;-74
2021/01/31 12:14:04;;;;;;;15.15;7.95;;;0.80;99.90;;;;;;4984822;28;20443;-74
2021/01/31 12:16:29;;;;;;;15.27;8.18;;;0.80;99.90;;;;;;4972618;28;20085;-74
2021/01/31 12:18:55;;;;;;;14.93;7.95;;;0.80;99.90;;;;;;4980638;28;20089;-75
2021/01/31 12:21:23;;;;;;;16.48;8.32;;;0.90;99.90;;;;;;4974087;28;20169;-71
2021/01/31 12:23:49;;;;;;;16.80;9.68;;;0.80;99.90;;;;;;4975350;28;20079;-75
2021/01/31 12:26:15;;;;;;;15.27;8.80;;;0.70;99.90;;;;;;4976345;28;20664;-75
2021/01/31 12:28:40;;;;;;;13.63;7.40;;;0.70;99.90;;;;;;4970465;28;20688;-73
2021/01/31 12:31:06;;;;;;;16.63;8.93;;;0.80;99.90;;;;;;4985231;28;20084;-74
2021/01/31 12:33:31;;;;;;;14.82;9.20;;;0.70;99.90;;;;;;4978533;28;20086;-74
2021/01/31 12:35:57;;;;;;;16.20;8.77;;;0.60;99.90;;;;;;4969382;28;20103;-74
2021/01/31 12:38:22;;;;;;;16.90;9.68;;;0.80;99.90;;;;;;4970048;28;20086;-74
2021/01/31 12:40:48;;;;;;;15.55;8.80;;;0.90;99.90;;;;;;4961025;28;20087;-75
2021/01/31 12:43:14;;;;;;;12.45;7.90;;;0.80;99.90;;;;;;4976388;28;20145;-74
2021/01/31 12:45:39;;;;;;;15.55;7.40;;;0.90;99.90;;;;;;4975105;28;20148;-74
2021/01/31 12:48:05;;;;;;;14.50;7.82;;;0.90;99.90;;;;;;4981501;28;20153;-74
2021/01/31 12:50:31;;;;;;;18.33;9.35;;;1.00;99.90;;;;;;4987753;28;20467;-74
2021/01/31 12:52:58;;;;;;;13.43;8.15;;;0.80;99.90;;;;;;4986109;28;20098;-78
2021/01/31 12:55:24;;;;;;;13.68;8.13;;;0.90;99.90;;;;;;4977028;28;20555;-74
2021/01/31 12:57:49;;;;;;;14.77;8.10;;;0.90;99.90;;;;;;4974783;28;20137;-75
2021/01/31 13:00:18;;;;;;;15.68;8.10;;;0.90;99.90;;;;;;4994070;28;20404;-76
2021/01/31 13:02:44;;;;;;;14.40;8.32;;;1.10;99.90;;;;;;4992493;28;20082;-73
2021/01/31 13:05:11;;;;;;;13.88;8.25;;;1.20;99.90;;;;;;4986360;28;20111;-75
2021/01/31 13:07:36;;;;;;;14.18;7.65;;;1.20;99.90;;;;;;4970262;28;20205;-76
2021/01/31 13:10:06;;;;;;;15.65;8.32;;;1.10;99.90;;;;;;4969071;28;20610;-75
2021/01/31 13:12:31;;;;;;;17.08;9.15;;;1.10;99.90;;;;;;4970579;28;20072;-74
2021/01/31 13:14:57;;;;;;;16.35;8.60;;;1.10;99.90;;;;;;4970234;28;20483;-74
2021/01/31 13:17:23;;;;;;;15.40;9.20;;;1.10;99.90;;;;;;4970461;28;20593;-75